Time;durP1;ratioP1;P1;durP2;ratioP2;P2;SDS_P1;SDS_P2;PMS_P1;PMS_P2;Temp;Humidity;BMP_temperature;BMP_pressure;BME280_temperature;BME280_humidity;BME280_pressure;Samples;Min_cycle;Max_cycle;Signal;HPM_P1;HPM_P2
2022/08/18 00:01:25;;;;;;;14.52;8.80;;;;;;;;;;5093972;28;20023;-77
2022/08/18 00:03:51;;;;;;;9.60;8.60;;;;;;;;;;5124573;27;20012;-78
2022/08/18 00:06:18;;;;;;;11.40;9.82;;;;;;;;;;5087584;28;20031;-80
2022/08/18 00:08:44;;;;;;;13.48;10.00;;;;;;;;;;5087685;28;20103;-75
2022/08/18 00:11:10;;;;;;;19.25;10.63;;;;;;;;;;5119795;27;20020;-76
2022/08/18 00:13:36;;;;;;;14.35;9.25;;;;;;;;;;5083258;28;20082;-77
2022/08/18 00:16:02;;;;;;;11.48;8.88;;;;;;;;;;5090683;28;20016;-77
2022/08/18 00:18:28;;;;;;;12.60;9.98;;;;;;;;;;5089057;28;20095;-78
2022/08/18 00:20:54;;;;;;;12.88;9.05;;;;;;;;;;5085739;28;20036;-79
2022/08/18 00:23:20;;;;;;;11.60;9.15;;;;;;;;;;5085394;28;20078;-77
2022/08/18 00:25:49;;;;;;;15.05;11.50;;;;;;;;;;5088280;28;20073;-77
2022/08/18 00:28:15;;;;;;;11.98;9.70;;;;;;;;;;5117582;27;20025;-76
2022/08/18 00:30:41;;;;;;;13.38;9.80;;;;;;;;;;5089551;28;20027;-76
2022/08/18 00:33:07;;;;;;;13.32;10.60;;;;;;;;;;5091491;28;20016;-78
2022/08/18 00:35:35;;;;;;;13.43;9.65;;;;;;;;;;5089882;28;20024;-75
2022/08/18 00:38:03;;;;;;;15.68;9.80;;;;;;;;;;5090083;28;20024;-78
2022/08/18 00:40:31;;;;;;;11.57;9.73;;;;;;;;;;5091095;28;20035;-79
2022/08/18 00:43:00;;;;;;;11.63;9.93;;;;;;;;;;5086176;28;20012;-77
2022/08/18 00:45:31;;;;;;;14.38;10.07;;;;;;;;;;5089913;28;20028;-78
2022/08/18 00:47:58;;;;;;;11.82;10.25;;;;;;;;;;5090536;28;20108;-76
2022/08/18 00:50:30;;;;;;;15.52;10.43;;;;;;;;;;5090977;28;20099;-77
2022/08/18 00:52:58;;;;;;;10.48;9.02;;;;;;;;;;5090687;28;20115;-78
2022/08/18 00:55:25;;;;;;;11.98;9.82;;;;;;;;;;5090896;28;20028;-77
2022/08/18 00:57:53;;;;;;;11.30;9.63;;;;;;;;;;5089662;28;20017;-78
2022/08/18 01:00:20;;;;;;;16.60;10.65;;;;;;;;;;5089931;28;20032;-77
2022/08/18 01:02:48;;;;;;;11.82;10.65;;;;;;;;;;5089808;28;20024;-76
2022/08/18 01:05:21;;;;;;;9.70;8.55;;;;;;;;;;5110223;27;20024;-77
2022/08/18 01:07:47;;;;;;;16.80;8.95;;;;;;;;;;5089835;28;20036;-76
2022/08/18 01:10:17;;;;;;;12.35;9.20;;;;;;;;;;5118457;28;20016;-76
2022/08/18 01:12:44;;;;;;;11.00;8.65;;;;;;;;;;5089668;28;20148;-77
2022/08/18 01:15:12;;;;;;;14.25;9.23;;;;;;;;;;5123686;28;20038;-77
2022/08/18 01:23:30;;;;;;;14.02;9.25;;;;;;;;;;5090285;28;20051;-78
2022/08/18 01:25:59;;;;;;;12.07;9.15;;;;;;;;;;5079505;28;20036;-77
2022/08/18 01:28:30;;;;;;;12.93;9.50;;;;;;;;;;5089348;28;20038;-78
2022/08/18 01:30:57;;;;;;;13.77;10.63;;;;;;;;;;5089695;28;20074;-77
2022/08/18 01:33:35;;;;;;;11.13;9.57;;;;;;;;;;5127555;27;20024;-78
2022/08/18 01:36:13;;;;;;;10.77;9.77;;;;;;;;;;5091587;28;20055;-77
2022/08/18 01:38:39;;;;;;;13.32;9.80;;;;;;;;;;5087097;28;20016;-77
2022/08/18 01:41:06;;;;;;;11.85;9.80;;;;;;;;;;5081023;28;20020;-75
2022/08/18 01:43:33;;;;;;;16.85;9.98;;;;;;;;;;5109195;27;20032;-78
2022/08/18 01:46:00;;;;;;;14.13;10.25;;;;;;;;;;5088169;28;20058;-78
2022/08/18 01:48:27;;;;;;;12.00;9.85;;;;;;;;;;5093389;28;20077;-77
2022/08/18 01:50:55;;;;;;;15.75;9.95;;;;;;;;;;5097585;28;20103;-75
2022/08/18 01:53:21;;;;;;;14.40;9.68;;;;;;;;;;5097042;28;20017;-78
2022/08/18 01:55:48;;;;;;;10.48;9.00;;;;;;;;;;5120419;27;20111;-77
2022/08/18 01:58:14;;;;;;;21.00;15.80;;;;;;;;;;5089750;28;20036;-78
2022/08/18 02:00:41;;;;;;;14.20;10.75;;;;;;;;;;5087113;28;20161;-77
2022/08/18 02:03:10;;;;;;;13.40;10.32;;;;;;;;;;5093688;28;20026;-78
2022/08/18 02:05:46;;;;;;;13.10;9.82;;;;;;;;;;5103929;28;20040;-76
2022/08/18 02:08:12;;;;;;;16.63;11.90;;;;;;;;;;5094835;28;20024;-77
2022/08/18 02:10:39;;;;;;;11.60;10.50;;;;;;;;;;5096529;28;20042;-78
2022/08/18 02:13:05;;;;;;;14.90;11.13;;;;;;;;;;5092998;28;20019;-77
2022/08/18 02:15:31;;;;;;;13.13;9.88;;;;;;;;;;5134486;27;20028;-76
2022/08/18 02:17:57;;;;;;;11.88;9.43;;;;;;;;;;5099826;28;20111;-77
2022/08/18 02:20:24;;;;;;;12.55;11.32;;;;;;;;;;5092444;28;20063;-76
2022/08/18 02:22:50;;;;;;;15.07;10.10;;;;;;;;;;5088221;28;20380;-77
2022/08/18 02:25:17;;;;;;;12.80;9.43;;;;;;;;;;5095485;28;20095;-75
2022/08/18 02:27:44;;;;;;;13.50;10.95;;;;;;;;;;5110425;27;20016;-77
2022/08/18 02:30:12;;;;;;;16.30;11.32;;;;;;;;;;5089371;28;20062;-76
2022/08/18 02:32:38;;;;;;;14.60;11.23;;;;;;;;;;5092187;28;20035;-78
2022/08/18 02:35:08;;;;;;;14.52;12.52;;;;;;;;;;5092838;28;20021;-77
2022/08/18 02:37:34;;;;;;;15.07;12.27;;;;;;;;;;5092335;28;20012;-76
2022/08/18 02:40:00;;;;;;;13.07;10.98;;;;;;;;;;5115276;27;20029;-75
2022/08/18 02:42:28;;;;;;;16.98;11.80;;;;;;;;;;5079282;28;20028;-74
2022/08/18 02:44:54;;;;;;;13.38;10.45;;;;;;;;;;5093549;28;20060;-75
2022/08/18 02:47:20;;;;;;;16.00;12.23;;;;;;;;;;5140896;27;20054;-76
2022/08/18 02:49:47;;;;;;;15.20;11.52;;;;;;;;;;5100169;28;20544;-78
2022/08/18 02:52:13;;;;;;;12.45;11.07;;;;;;;;;;5099451;28;20157;-76
2022/08/18 02:54:39;;;;;;;15.65;10.63;;;;;;;;;;5138555;27;20401;-77
2022/08/18 02:57:06;;;;;;;15.00;12.05;;;;;;;;;;5082964;28;20452;-79
2022/08/18 02:59:33;;;;;;;13.88;11.23;;;;;;;;;;5091936;28;20020;-80
2022/08/18 03:01:59;;;;;;;15.27;10.57;;;;;;;;;;5092953;28;20509;-78
2022/08/18 03:04:26;;;;;;;15.18;11.60;;;;;;;;;;5093126;28;20442;-77
2022/08/18 03:06:56;;;;;;;15.95;11.20;;;;;;;;;;5104638;28;20054;-77
2022/08/18 03:09:23;;;;;;;15.85;12.15;;;;;;;;;;5092765;28;20020;-78
2022/08/18 03:11:49;;;;;;;15.63;12.05;;;;;;;;;;5105200;28;20032;-76
2022/08/18 03:14:15;;;;;;;16.50;12.13;;;;;;;;;;5090793;28;20055;-79
2022/08/18 03:16:45;;;;;;;19.10;11.85;;;;;;;;;;5091490;28;20479;-79
2022/08/18 03:19:13;;;;;;;15.10;12.20;;;;;;;;;;5093041;28;20429;-77
2022/08/18 03:21:40;;;;;;;16.92;11.90;;;;;;;;;;5093117;28;20044;-78
2022/08/18 03:24:06;;;;;;;17.30;13.02;;;;;;;;;;5095559;28;20396;-79
2022/08/18 03:26:32;;;;;;;18.80;13.45;;;;;;;;;;5093024;28;20375;-78
2022/08/18 03:28:59;;;;;;;20.13;13.65;;;;;;;;;;5106855;28;20043;-78
2022/08/18 03:31:26;;;;;;;17.10;13.18;;;;;;;;;;5092495;28;20346;-77
2022/08/18 03:33:52;;;;;;;13.80;11.30;;;;;;;;;;5092562;28;20361;-76
2022/08/18 03:36:20;;;;;;;38.80;13.18;;;;;;;;;;5092665;28;20017;-76
2022/08/18 03:38:47;;;;;;;16.30;14.30;;;;;;;;;;5105416;28;20024;-79
2022/08/18 03:41:14;;;;;;;15.95;13.60;;;;;;;;;;5118795;27;20016;-77
2022/08/18 03:43:40;;;;;;;23.83;13.57;;;;;;;;;;5084954;28;20024;-76
2022/08/18 03:46:08;;;;;;;21.83;15.15;;;;;;;;;;5102506;28;20040;-78
2022/08/18 03:48:35;;;;;;;34.10;19.50;;;;;;;;;;5077108;28;20348;-77
2022/08/18 03:51:08;;;;;;;35.90;31.90;;;;;;;;;;5092810;28;20024;-76
2022/08/18 03:53:35;;;;;;;37.78;33.97;;;;;;;;;;5100715;28;20024;-76
2022/08/18 03:56:02;;;;;;;47.08;42.53;;;;;;;;;;5093544;28;20020;-78
2022/08/18 03:58:28;;;;;;;41.40;36.97;;;;;;;;;;5096437;28;20048;-79
2022/08/18 04:00:54;;;;;;;34.28;29.90;;;;;;;;;;5083902;28;20384;-79
2022/08/18 04:03:20;;;;;;;48.70;40.35;;;;;;;;;;5071763;28;20114;-76
2022/08/18 04:05:46;;;;;;;34.58;31.02;;;;;;;;;;5085404;28;20058;-75
2022/08/18 04:08:12;;;;;;;31.60;27.90;;;;;;;;;;5084677;28;20024;-74
2022/08/18 04:10:39;;;;;;;20.77;17.90;;;;;;;;;;5076359;28;20012;-75
2022/08/18 04:13:05;;;;;;;20.50;17.95;;;;;;;;;;5113206;27;20126;-75
2022/08/18 04:15:31;;;;;;;19.40;15.52;;;;;;;;;;5084907;28;20031;-75
2022/08/18 04:17:59;;;;;;;17.58;11.80;;;;;;;;;;5087910;28;21185;-79
2022/08/18 04:20:25;;;;;;;23.20;13.05;;;;;;;;;;5077304;28;20535;-75
2022/08/18 04:22:51;;;;;;;13.00;10.73;;;;;;;;;;5071796;28;20066;-74
2022/08/18 04:25:17;;;;;;;18.08;10.80;;;;;;;;;;5081810;28;20020;-76
2022/08/18 04:27:43;;;;;;;17.42;11.32;;;;;;;;;;5084618;28;20024;-77
2022/08/18 04:30:10;;;;;;;19.13;13.40;;;;;;;;;;5080698;28;20096;-75
2022/08/18 04:32:36;;;;;;;15.95;13.63;;;;;;;;;;5087460;28;20020;-75
2022/08/18 04:35:03;;;;;;;14.52;10.80;;;;;;;;;;5086077;28;20024;-76
2022/08/18 04:37:31;;;;;;;18.33;12.77;;;;;;;;;;5082923;28;20020;-76
2022/08/18 04:39:58;;;;;;;20.75;13.13;;;;;;;;;;5077586;28;20017;-75
2022/08/18 04:42:25;;;;;;;21.15;13.48;;;;;;;;;;5072737;28;20016;-76
2022/08/18 04:44:51;;;;;;;22.55;13.55;;;;;;;;;;5078368;28;20024;-76
2022/08/18 04:47:17;;;;;;;21.48;13.15;;;;;;;;;;5089035;28;20032;-75
2022/08/18 04:49:43;;;;;;;13.55;11.25;;;;;;;;;;5079353;28;20013;-75
2022/08/18 04:54:54;;;;;;;18.08;15.02;;;;;;;;;;5089819;28;20034;-76
2022/08/18 04:57:21;;;;;;;26.38;15.57;;;;;;;;;;5083543;28;20158;-76
2022/08/18 04:59:49;;;;;;;23.25;19.02;;;;;;;;;;5085813;28;20024;-76
2022/08/18 05:02:15;;;;;;;24.70;15.90;;;;;;;;;;5088668;28;20103;-75
2022/08/18 05:04:45;;;;;;;22.52;20.08;;;;;;;;;;5091435;28;20039;-75
2022/08/18 05:07:12;;;;;;;21.65;18.02;;;;;;;;;;5076336;28;20027;-77
2022/08/18 05:09:40;;;;;;;25.92;18.77;;;;;;;;;;5088153;28;20467;-77
2022/08/18 05:12:07;;;;;;;14.85;12.10;;;;;;;;;;5085426;28;20363;-78
2022/08/18 05:14:34;;;;;;;18.90;9.18;;;;;;;;;;5093571;28;20519;-77
2022/08/18 05:17:01;;;;;;;12.35;10.43;;;;;;;;;;5091208;28;20055;-75
2022/08/18 05:19:27;;;;;;;26.25;10.60;;;;;;;;;;5086922;28;20175;-77
2022/08/18 05:21:54;;;;;;;16.02;11.45;;;;;;;;;;5107785;27;20048;-76
2022/08/18 05:24:22;;;;;;;12.93;10.60;;;;;;;;;;5083999;28;20028;-76
2022/08/18 05:26:48;;;;;;;21.95;13.40;;;;;;;;;;5089133;28;20099;-75
2022/08/18 05:29:15;;;;;;;14.60;10.52;;;;;;;;;;5084285;28;20028;-74
2022/08/18 05:31:41;;;;;;;19.90;15.50;;;;;;;;;;5091048;28;20103;-76
2022/08/18 05:34:07;;;;;;;18.42;11.10;;;;;;;;;;5091892;28;20024;-76
2022/08/18 05:36:45;;;;;;;15.63;11.55;;;;;;;;;;5093047;28;20021;-75
2022/08/18 05:39:12;;;;;;;18.45;10.85;;;;;;;;;;5086501;28;20032;-78
2022/08/18 05:41:40;;;;;;;21.13;13.32;;;;;;;;;;5087710;28;20020;-78
2022/08/18 05:44:07;;;;;;;20.35;10.88;;;;;;;;;;5095349;28;20095;-77
2022/08/18 05:46:55;;;;;;;15.05;10.55;;;;;;;;;;5130066;27;20122;-77
2022/08/18 05:49:22;;;;;;;18.15;11.15;;;;;;;;;;5101412;28;20024;-78
2022/08/18 05:51:57;;;;;;;20.92;11.90;;;;;;;;;;5089067;28;20009;-78
2022/08/18 05:57:14;;;;;;;18.10;11.88;;;;;;;;;;5084254;28;20133;-77
2022/08/18 05:59:41;;;;;;;24.48;12.13;;;;;;;;;;5094059;28;20016;-76
2022/08/18 06:02:26;;;;;;;18.70;10.77;;;;;;;;;;5094080;28;20136;-75
2022/08/18 06:04:52;;;;;;;13.90;11.18;;;;;;;;;;5093143;28;20047;-77
2022/08/18 06:07:21;;;;;;;17.90;10.50;;;;;;;;;;5091669;28;20477;-76
2022/08/18 06:09:49;;;;;;;18.77;12.30;;;;;;;;;;5103352;28;20499;-75
2022/08/18 06:12:28;;;;;;;16.40;10.77;;;;;;;;;;5097232;28;20031;-76
2022/08/18 06:15:00;;;;;;;29.98;20.73;;;;;;;;;;5092405;28;20028;-78
2022/08/18 06:17:45;;;;;;;25.25;14.10;;;;;;;;;;5128516;27;20028;-76
2022/08/18 06:20:19;;;;;;;16.23;12.52;;;;;;;;;;5090340;28;20024;-75
2022/08/18 06:23:06;;;;;;;25.27;13.13;;;;;;;;;;5081735;28;20044;-74
2022/08/18 06:25:33;;;;;;;22.05;12.55;;;;;;;;;;5093138;28;20044;-74
2022/08/18 06:27:59;;;;;;;15.88;11.82;;;;;;;;;;5088064;28;20030;-75
2022/08/18 06:30:32;;;;;;;17.40;12.90;;;;;;;;;;5090846;28;20024;-75
2022/08/18 06:33:19;;;;;;;20.08;11.68;;;;;;;;;;5091859;28;20047;-75
2022/08/18 06:35:49;;;;;;;26.95;13.00;;;;;;;;;;5090313;28;20047;-76
2022/08/18 06:41:08;;;;;;;15.45;11.10;;;;;;;;;;5077823;28;20524;-75
2022/08/18 06:43:36;;;;;;;14.68;11.73;;;;;;;;;;5107041;27;20119;-76
2022/08/18 06:46:05;;;;;;;20.98;12.25;;;;;;;;;;5084772;28;20035;-75
2022/08/18 06:48:44;;;;;;;20.20;11.63;;;;;;;;;;5087493;28;20027;-75
2022/08/18 06:51:11;;;;;;;23.35;11.27;;;;;;;;;;5102005;28;20056;-75
2022/08/18 06:53:51;;;;;;;16.92;11.15;;;;;;;;;;5118976;27;20040;-76
2022/08/18 06:56:37;;;;;;;16.63;10.70;;;;;;;;;;5110195;28;20047;-75
2022/08/18 06:59:18;;;;;;;18.33;11.00;;;;;;;;;;5069373;28;20044;-75
2022/08/18 07:01:46;;;;;;;14.55;9.85;;;;;;;;;;5091736;28;20525;-76
2022/08/18 07:04:30;;;;;;;18.20;10.80;;;;;;;;;;5077782;28;20017;-74
2022/08/18 07:06:56;;;;;;;15.85;9.10;;;;;;;;;;5080046;28;20035;-75
2022/08/18 07:09:32;;;;;;;16.92;10.30;;;;;;;;;;5075681;28;20016;-74
2022/08/18 07:12:00;;;;;;;13.38;9.93;;;;;;;;;;5079774;28;20434;-75
2022/08/18 07:14:27;;;;;;;13.85;8.55;;;;;;;;;;5074609;28;20024;-75
2022/08/18 07:17:07;;;;;;;12.93;8.50;;;;;;;;;;5082276;28;20017;-75
2022/08/18 07:19:33;;;;;;;12.68;8.43;;;;;;;;;;5075561;28;20107;-74
2022/08/18 07:22:02;;;;;;;9.45;8.30;;;;;;;;;;5073935;28;20053;-75
2022/08/18 07:24:31;;;;;;;19.20;8.05;;;;;;;;;;5088788;28;20081;-75
2022/08/18 07:27:11;;;;;;;13.07;7.40;;;;;;;;;;5086501;28;20048;-77
2022/08/18 07:29:38;;;;;;;14.75;8.90;;;;;;;;;;5089969;28;20564;-74
2022/08/18 07:32:15;;;;;;;13.52;8.82;;;;;;;;;;5122879;27;20335;-74
2022/08/18 07:34:54;;;;;;;12.70;8.05;;;;;;;;;;5071924;28;20075;-74
2022/08/18 07:37:26;;;;;;;14.05;7.85;;;;;;;;;;5080666;28;20024;-74
2022/08/18 07:39:57;;;;;;;9.85;8.07;;;;;;;;;;5070264;28;20044;-76
2022/08/18 07:42:39;;;;;;;10.18;8.45;;;;;;;;;;5107870;27;20032;-75
2022/08/18 07:45:05;;;;;;;10.75;7.20;;;;;;;;;;5078984;28;20027;-74
2022/08/18 07:47:53;;;;;;;11.15;6.78;;;;;;;;;;5086118;28;20510;-76
2022/08/18 07:50:20;;;;;;;10.60;7.32;;;;;;;;;;5080597;28;20085;-75
2022/08/18 07:53:09;;;;;;;13.07;7.53;;;;;;;;;;5075591;28;20074;-76
2022/08/18 07:55:35;;;;;;;9.15;7.53;;;;;;;;;;5067688;28;20024;-75
2022/08/18 07:58:20;;;;;;;12.02;7.60;;;;;;;;;;5089915;28;20025;-73
2022/08/18 08:00:51;;;;;;;11.30;7.38;;;;;;;;;;5084479;28;20487;-74
2022/08/18 08:03:23;;;;;;;10.07;7.45;;;;;;;;;;5085447;28;20024;-74
2022/08/18 08:06:08;;;;;;;10.50;7.07;;;;;;;;;;5086264;28;20028;-74
2022/08/18 08:08:39;;;;;;;17.15;8.00;;;;;;;;;;5121253;27;20077;-73
2022/08/18 08:11:08;;;;;;;12.75;7.30;;;;;;;;;;5086109;28;20044;-73
2022/08/18 08:13:46;;;;;;;11.50;7.25;;;;;;;;;;5077797;28;20059;-74
2022/08/18 08:16:20;;;;;;;13.57;7.15;;;;;;;;;;5077108;28;20035;-74
2022/08/18 08:18:55;;;;;;;12.13;7.93;;;;;;;;;;5077625;28;20063;-75
2022/08/18 08:21:23;;;;;;;11.43;6.85;;;;;;;;;;5087806;28;20052;-75
2022/08/18 08:24:02;;;;;;;22.52;8.07;;;;;;;;;;5116927;27;20039;-73
2022/08/18 08:26:36;;;;;;;15.55;7.97;;;;;;;;;;5074099;28;20102;-75
2022/08/18 08:29:03;;;;;;;12.60;7.32;;;;;;;;;;5071268;28;20016;-76
2022/08/18 08:31:43;;;;;;;12.85;7.32;;;;;;;;;;5078694;28;20016;-74
2022/08/18 08:34:21;;;;;;;10.82;7.00;;;;;;;;;;5084925;28;20016;-75
2022/08/18 08:36:48;;;;;;;8.45;7.18;;;;;;;;;;5085026;28;20042;-74
2022/08/18 08:39:14;;;;;;;9.73;6.47;;;;;;;;;;5082891;28;20043;-75
2022/08/18 08:41:44;;;;;;;12.52;7.57;;;;;;;;;;5078007;28;20025;-76
2022/08/18 08:44:10;;;;;;;11.30;6.65;;;;;;;;;;5078111;28;20012;-74
2022/08/18 08:46:44;;;;;;;15.32;7.28;;;;;;;;;;5090012;28;20380;-74
2022/08/18 08:49:27;;;;;;;9.52;6.97;;;;;;;;;;5087864;28;20024;-73
2022/08/18 08:51:56;;;;;;;12.03;6.70;;;;;;;;;;5078614;28;20021;-74
2022/08/18 08:54:44;;;;;;;8.88;6.65;;;;;;;;;;5079486;28;20073;-73
2022/08/18 08:57:12;;;;;;;13.63;6.80;;;;;;;;;;5087439;28;20028;-74
2022/08/18 08:59:39;;;;;;;8.93;6.10;;;;;;;;;;5078274;28;20021;-75
2022/08/18 09:02:07;;;;;;;13.85;7.63;;;;;;;;;;5079971;28;20025;-75
2022/08/18 09:04:52;;;;;;;9.65;6.40;;;;;;;;;;5086960;28;20028;-75
2022/08/18 09:07:31;;;;;;;13.88;6.45;;;;;;;;;;5074057;28;20032;-75
2022/08/18 09:10:16;;;;;;;10.23;6.35;;;;;;;;;;5086344;28;20106;-75
2022/08/18 09:12:49;;;;;;;16.35;6.82;;;;;;;;;;5083877;28;20025;-76
2022/08/18 09:15:33;;;;;;;7.43;5.95;;;;;;;;;;5100539;28;20016;-78
2022/08/18 09:18:07;;;;;;;8.45;6.15;;;;;;;;;;5088769;28;20142;-76
2022/08/18 09:20:43;;;;;;;10.93;6.38;;;;;;;;;;5081483;28;20031;-76
2022/08/18 09:23:17;;;;;;;11.55;7.25;;;;;;;;;;5097220;28;20030;-76
2022/08/18 09:25:43;;;;;;;12.45;6.07;;;;;;;;;;5080884;28;20032;-75
2022/08/18 09:28:10;;;;;;;15.27;6.57;;;;;;;;;;5113370;28;20048;-77
2022/08/18 09:30:48;;;;;;;11.57;6.07;;;;;;;;;;5092952;28;20023;-76
2022/08/18 09:33:14;;;;;;;10.18;6.05;;;;;;;;;;5103208;28;20028;-78
2022/08/18 09:35:50;;;;;;;14.60;6.55;;;;;;;;;;5078316;28;20020;-77
2022/08/18 09:44:09;;;;;;;9.02;6.00;;;;;;;;;;5086913;28;20043;-77
2022/08/18 09:46:41;;;;;;;7.35;5.47;;;;;;;;;;5086180;28;20032;-75
2022/08/18 09:49:23;;;;;;;7.95;5.55;;;;;;;;;;5082512;28;20031;-77
2022/08/18 09:51:50;;;;;;;7.93;5.78;;;;;;;;;;5104748;28;20036;-79
2022/08/18 09:54:17;;;;;;;12.38;5.72;;;;;;;;;;5102983;28;20030;-76
2022/08/18 09:56:49;;;;;;;10.30;5.50;;;;;;;;;;5097833;28;20024;-78
2022/08/18 09:59:35;;;;;;;10.20;5.80;;;;;;;;;;5080423;28;20028;-77
2022/08/18 10:02:06;;;;;;;11.13;5.38;;;;;;;;;;5090846;28;20253;-77
2022/08/18 10:04:47;;;;;;;10.13;6.13;;;;;;;;;;5088836;28;20036;-78
2022/08/18 10:07:34;;;;;;;11.18;6.15;;;;;;;;;;5085946;28;20039;-76
2022/08/18 10:10:12;;;;;;;9.07;5.88;;;;;;;;;;5114486;27;20082;-76
2022/08/18 10:12:49;;;;;;;12.02;5.88;;;;;;;;;;5091365;28;20107;-76
2022/08/18 10:15:37;;;;;;;8.38;5.70;;;;;;;;;;5093147;28;20024;-75
2022/08/18 10:18:16;;;;;;;9.57;5.55;;;;;;;;;;5088977;28;20467;-75
2022/08/18 10:20:48;;;;;;;8.73;5.72;;;;;;;;;;5088120;28;20062;-75
2022/08/18 10:23:43;;;;;;;10.20;5.03;;;;;;;;;;5092390;28;20030;-78
2022/08/18 10:26:28;;;;;;;6.80;4.70;;;;;;;;;;5092023;28;20051;-76
2022/08/18 10:28:56;;;;;;;9.00;5.57;;;;;;;;;;5089412;28;20482;-77
2022/08/18 10:31:22;;;;;;;8.88;5.70;;;;;;;;;;5090296;28;20026;-77
2022/08/18 10:34:00;;;;;;;5.78;4.95;;;;;;;;;;5093799;28;20443;-77
2022/08/18 10:36:45;;;;;;;6.15;4.55;;;;;;;;;;5107893;28;20498;-78
2022/08/18 10:39:23;;;;;;;5.60;4.35;;;;;;;;;;5123435;27;20039;-77
2022/08/18 10:41:56;;;;;;;9.30;4.65;;;;;;;;;;5096805;28;20020;-77
2022/08/18 10:44:23;;;;;;;7.82;3.97;;;;;;;;;;5107714;28;20024;-77
2022/08/18 10:46:52;;;;;;;7.75;4.20;;;;;;;;;;5091870;28;20035;-77
2022/08/18 10:49:26;;;;;;;6.65;4.43;;;;;;;;;;5131178;27;20472;-76
2022/08/18 10:51:54;;;;;;;8.85;4.35;;;;;;;;;;5106075;28;20119;-75
2022/08/18 10:54:20;;;;;;;9.13;4.78;;;;;;;;;;5093179;28;20037;-78
2022/08/18 10:56:51;;;;;;;9.52;5.90;;;;;;;;;;5092493;28;20020;-75
2022/08/18 10:59:17;;;;;;;7.68;4.57;;;;;;;;;;5097177;28;20048;-76
2022/08/18 11:01:58;;;;;;;10.60;4.60;;;;;;;;;;5106590;28;20016;-79
2022/08/18 11:04:26;;;;;;;7.53;4.32;;;;;;;;;;5091526;28;20024;-78
2022/08/18 11:06:58;;;;;;;8.40;4.28;;;;;;;;;;5081472;28;20510;-77
2022/08/18 11:09:25;;;;;;;5.25;4.25;;;;;;;;;;5100652;28;20028;-78
2022/08/18 11:11:53;;;;;;;10.18;4.50;;;;;;;;;;5107424;28;20020;-76
2022/08/18 11:14:27;;;;;;;8.07;4.40;;;;;;;;;;5102182;28;20041;-79
2022/08/18 11:17:13;;;;;;;5.72;4.35;;;;;;;;;;5105446;28;20054;-77
2022/08/18 11:19:40;;;;;;;5.85;4.63;;;;;;;;;;5091062;28;20035;-80
2022/08/18 11:22:06;;;;;;;9.52;5.43;;;;;;;;;;5089701;28;20051;-78
2022/08/18 11:24:34;;;;;;;9.43;4.32;;;;;;;;;;5090903;28;20467;-77
2022/08/18 11:27:04;;;;;;;6.65;4.15;;;;;;;;;;5092293;28;20028;-77
2022/08/18 11:29:30;;;;;;;8.73;3.92;;;;;;;;;;5092511;28;20012;-78
2022/08/18 11:31:56;;;;;;;11.52;4.90;;;;;;;;;;5121362;27;20039;-76
2022/08/18 11:34:27;;;;;;;7.78;5.22;;;;;;;;;;5091821;28;20471;-75
2022/08/18 11:36:58;;;;;;;7.25;4.63;;;;;;;;;;5092401;28;20024;-77
2022/08/18 11:39:26;;;;;;;6.25;4.32;;;;;;;;;;5134136;27;20025;-75
2022/08/18 11:41:56;;;;;;;9.07;4.10;;;;;;;;;;5108775;27;20021;-77
2022/08/18 11:44:27;;;;;;;5.47;4.25;;;;;;;;;;5074493;28;20559;-80
2022/08/18 11:46:56;;;;;;;10.15;3.80;;;;;;;;;;5090720;28;20054;-77
2022/08/18 11:49:31;;;;;;;9.98;4.55;;;;;;;;;;5090322;28;20028;-77
2022/08/18 11:52:16;;;;;;;8.30;4.47;;;;;;;;;;5090992;28;20103;-78
2022/08/18 11:54:44;;;;;;;6.65;4.38;;;;;;;;;;5112830;27;20495;-80
2022/08/18 11:57:30;;;;;;;12.00;5.88;;;;;;;;;;5084054;28;20066;-78
2022/08/18 11:59:56;;;;;;;8.63;5.63;;;;;;;;;;5113601;27;20497;-75
2022/08/18 12:02:24;;;;;;;11.82;8.23;;;;;;;;;;5090497;28;20403;-76
2022/08/18 12:05:01;;;;;;;10.48;8.65;;;;;;;;;;5082200;28;20425;-78
2022/08/18 12:07:29;;;;;;;7.68;6.10;;;;;;;;;;5090887;28;20075;-77
2022/08/18 12:10:13;;;;;;;9.00;6.68;;;;;;;;;;5090334;28;20020;-76
2022/08/18 12:12:47;;;;;;;11.88;9.88;;;;;;;;;;5084776;28;20109;-78
2022/08/18 12:15:15;;;;;;;8.07;5.60;;;;;;;;;;5097113;28;20375;-77
2022/08/18 12:17:44;;;;;;;15.70;11.38;;;;;;;;;;5078236;28;20025;-77
2022/08/18 12:20:10;;;;;;;10.63;6.68;;;;;;;;;;5087216;28;20020;-76
2022/08/18 12:22:38;;;;;;;10.52;9.10;;;;;;;;;;5074247;28;20052;-77
2022/08/18 12:25:06;;;;;;;10.35;5.82;;;;;;;;;;5089739;28;20475;-78
2022/08/18 12:27:34;;;;;;;9.73;6.38;;;;;;;;;;5075251;28;20495;-78
2022/08/18 12:30:01;;;;;;;16.63;12.75;;;;;;;;;;5082873;28;20036;-77
2022/08/18 12:32:28;;;;;;;11.07;8.10;;;;;;;;;;5089190;28;20024;-76
2022/08/18 12:34:54;;;;;;;10.70;5.25;;;;;;;;;;5082424;28;20020;-79
2022/08/18 12:37:22;;;;;;;43.45;39.13;;;;;;;;;;5084466;28;20148;-77
2022/08/18 12:39:48;;;;;;;6.55;4.88;;;;;;;;;;5084737;28;20096;-76
2022/08/18 12:42:14;;;;;;;12.55;4.45;;;;;;;;;;5119517;28;20115;-77
2022/08/18 12:44:41;;;;;;;6.78;4.25;;;;;;;;;;5084953;28;20167;-75
2022/08/18 12:47:11;;;;;;;4.63;3.47;;;;;;;;;;5082863;28;20491;-77
2022/08/18 12:49:37;;;;;;;5.93;3.70;;;;;;;;;;5089857;28;20020;-77
2022/08/18 12:52:03;;;;;;;4.55;3.70;;;;;;;;;;5087618;28;20025;-79
2022/08/18 12:54:31;;;;;;;9.68;4.03;;;;;;;;;;5087342;28;20530;-76
2022/08/18 12:56:57;;;;;;;6.70;4.22;;;;;;;;;;5078666;28;20520;-77
2022/08/18 12:59:24;;;;;;;6.15;3.75;;;;;;;;;;5087232;28;20024;-75
2022/08/18 13:01:51;;;;;;;4.55;3.85;;;;;;;;;;5091144;28;20049;-77
2022/08/18 13:04:17;;;;;;;8.35;4.18;;;;;;;;;;5082963;28;20064;-76
2022/08/18 13:06:48;;;;;;;6.75;4.53;;;;;;;;;;5079463;28;20036;-78
2022/08/18 13:09:14;;;;;;;6.03;3.67;;;;;;;;;;5076178;28;20016;-79
2022/08/18 13:11:40;;;;;;;5.95;4.22;;;;;;;;;;5069017;28;20016;-76
2022/08/18 13:14:07;;;;;;;7.60;3.72;;;;;;;;;;5103213;27;20032;-75
2022/08/18 13:16:34;;;;;;;9.13;4.35;;;;;;;;;;5087195;28;20488;-77
2022/08/18 13:19:00;;;;;;;4.82;3.80;;;;;;;;;;5107803;28;20453;-77
2022/08/18 13:21:27;;;;;;;11.98;4.72;;;;;;;;;;5087576;28;20337;-77
2022/08/18 13:23:53;;;;;;;9.98;4.63;;;;;;;;;;5087641;28;20016;-76
2022/08/18 13:26:27;;;;;;;8.98;3.75;;;;;;;;;;5093743;28;20067;-77
2022/08/18 13:28:54;;;;;;;13.40;3.92;;;;;;;;;;5093432;28;20048;-77
2022/08/18 13:31:20;;;;;;;9.68;4.38;;;;;;;;;;5083457;28;20017;-77
2022/08/18 13:33:46;;;;;;;6.97;3.78;;;;;;;;;;5091267;28;20550;-76
2022/08/18 13:36:12;;;;;;;8.15;4.38;;;;;;;;;;5092419;28;20020;-73
2022/08/18 13:38:41;;;;;;;9.77;3.90;;;;;;;;;;5087888;28;20078;-73
2022/08/18 13:41:07;;;;;;;5.72;3.85;;;;;;;;;;5093694;28;20020;-73
2022/08/18 13:43:36;;;;;;;9.75;5.78;;;;;;;;;;5104233;28;20027;-73
2022/08/18 13:46:02;;;;;;;5.68;3.97;;;;;;;;;;5107071;27;20032;-73
2022/08/18 13:48:29;;;;;;;8.85;3.65;;;;;;;;;;5134305;27;20479;-73
2022/08/18 13:50:57;;;;;;;7.18;5.15;;;;;;;;;;5111665;27;20024;-75
2022/08/18 13:53:24;;;;;;;7.32;4.35;;;;;;;;;;5095235;28;20016;-75
2022/08/18 13:55:50;;;;;;;6.30;4.35;;;;;;;;;;5094751;28;20031;-76
2022/08/18 13:58:17;;;;;;;5.85;3.65;;;;;;;;;;5097211;28;20016;-76
2022/08/18 14:00:43;;;;;;;9.13;4.15;;;;;;;;;;5120182;27;20020;-75
2022/08/18 14:03:09;;;;;;;5.85;3.67;;;;;;;;;;5093817;28;20031;-77
2022/08/18 14:05:36;;;;;;;7.20;3.90;;;;;;;;;;5094203;28;20027;-77
2022/08/18 14:08:02;;;;;;;11.35;4.80;;;;;;;;;;5094073;28;20110;-74
2022/08/18 14:10:28;;;;;;;10.10;5.07;;;;;;;;;;5100061;28;20158;-75
2022/08/18 14:12:56;;;;;;;5.45;4.15;;;;;;;;;;5092098;28;20021;-77
2022/08/18 14:15:22;;;;;;;8.30;4.10;;;;;;;;;;5092450;28;20024;-76
2022/08/18 14:17:49;;;;;;;10.55;4.80;;;;;;;;;;5094075;28;20020;-73
2022/08/18 14:28:31;;;;;;;5.45;4.07;;;;;;;;;;5086238;28;20093;-75
2022/08/18 14:30:58;;;;;;;9.80;4.70;;;;;;;;;;5088867;28;20020;-74
2022/08/18 14:33:25;;;;;;;10.60;4.72;;;;;;;;;;5092028;28;20046;-76
2022/08/18 14:35:52;;;;;;;7.30;4.90;;;;;;;;;;5083186;28;20024;-77
2022/08/18 14:38:18;;;;;;;7.57;5.15;;;;;;;;;;5090936;28;20020;-76
2022/08/18 14:40:46;;;;;;;5.90;4.32;;;;;;;;;;5092874;28;20026;-76
2022/08/18 14:43:13;;;;;;;11.63;4.53;;;;;;;;;;5084872;28;20086;-75
2022/08/18 14:45:46;;;;;;;9.75;4.65;;;;;;;;;;5089645;28;20024;-73
2022/08/18 14:48:13;;;;;;;12.15;4.43;;;;;;;;;;5089181;28;20024;-76
2022/08/18 14:50:39;;;;;;;8.48;4.90;;;;;;;;;;5091967;28;20099;-75
2022/08/18 14:53:05;;;;;;;5.43;4.63;;;;;;;;;;5088261;28;20506;-74
2022/08/18 14:55:32;;;;;;;10.00;4.90;;;;;;;;;;5092362;28;20028;-73
2022/08/18 14:57:58;;;;;;;9.02;5.07;;;;;;;;;;5091316;28;20073;-74
2022/08/18 15:00:24;;;;;;;8.88;4.80;;;;;;;;;;5121851;27;20052;-74
2022/08/18 15:02:50;;;;;;;14.55;4.45;;;;;;;;;;5093464;28;20020;-74
2022/08/18 15:05:17;;;;;;;10.35;5.07;;;;;;;;;;5091167;28;20020;-74
2022/08/18 15:07:43;;;;;;;10.00;4.47;;;;;;;;;;5090727;28;20050;-75
2022/08/18 15:10:11;;;;;;;7.82;4.65;;;;;;;;;;5103333;28;20046;-78
2022/08/18 15:12:38;;;;;;;11.13;5.55;;;;;;;;;;5092363;28;20544;-73